createdAt,value
2019-04-01T00:03:44.048Z,38.10
2019-04-01T00:08:47.613Z,37.83
2019-04-01T00:13:51.211Z,37.63
2019-04-01T00:19:02.886Z,37.20
2019-04-01T00:24:00.039Z,37.77
2019-04-01T00:29:03.625Z,37.40
2019-04-01T00:34:07.245Z,40.20
2019-04-01T00:39:10.821Z,41.90
2019-04-01T00:44:14.416Z,37.47
2019-04-01T00:49:18.025Z,37.37
2019-04-01T00:54:21.575Z,36.83
2019-04-01T00:59:25.253Z,37.03
2019-04-01T01:04:28.944Z,37.42
2019-04-01T01:09:32.519Z,37.73
2019-04-01T01:14:36.211Z,37.40
2019-04-01T01:19:39.876Z,37.23
2019-04-01T01:24:43.435Z,36.97
2019-04-01T01:29:47.032Z,37.63
2019-04-01T01:34:50.703Z,36.88
2019-04-01T01:39:54.908Z,37.50
2019-04-01T01:44:58.509Z,37.00
2019-04-01T01:50:02.107Z,36.70
2019-04-01T01:55:05.798Z,37.33
2019-04-01T02:00:10.702Z,37.53
2019-04-01T02:05:14.492Z,36.90
2019-04-01T02:10:18.279Z,37.07
2019-04-01T02:15:21.834Z,36.50
2019-04-01T02:20:25.603Z,36.98
2019-04-01T02:25:29.154Z,36.07
2019-04-01T02:30:32.757Z,36.70
2019-04-01T02:35:36.329Z,36.37
2019-04-01T02:40:39.915Z,36.20
2019-04-01T02:45:43.525Z,36.10
2019-04-01T02:50:47.101Z,36.10
2019-04-01T02:55:50.714Z,36.40
2019-04-01T03:00:54.757Z,35.50
2019-04-01T03:05:58.336Z,36.00
2019-04-01T03:11:02.080Z,35.95
2019-04-01T03:16:05.706Z,35.60
2019-04-01T03:21:09.369Z,35.80
2019-04-01T03:26:12.964Z,37.50
2019-04-01T03:31:16.603Z,35.05
2019-04-01T03:36:20.167Z,35.93
2019-04-01T03:41:23.928Z,35.00
2019-04-01T03:46:27.473Z,34.83
2019-04-01T03:51:31.113Z,34.47
2019-04-01T03:56:34.711Z,35.17
2019-04-01T04:01:38.351Z,34.50
2019-04-01T04:06:41.996Z,34.43
2019-04-01T04:11:45.590Z,33.67
2019-04-01T04:16:49.181Z,33.60
2019-04-01T04:21:53.026Z,33.57
2019-04-01T04:26:56.628Z,33.20
2019-04-01T04:32:00.208Z,33.57
2019-04-01T04:37:03.809Z,32.97
2019-04-01T04:42:07.447Z,32.93
2019-04-01T04:47:11.024Z,32.23
2019-04-01T04:52:14.640Z,31.93
2019-04-01T04:57:20.343Z,32.00
2019-04-01T05:02:24.762Z,33.80
2019-04-01T05:07:31.257Z,34.20
2019-04-01T05:12:33.718Z,36.03
2019-04-01T05:17:37.424Z,35.27
2019-04-01T05:22:41.831Z,36.47
2019-04-01T05:27:47.143Z,36.77
2019-04-01T05:32:52.492Z,38.17
2019-04-01T05:37:56.128Z,40.30
2019-04-01T05:43:00.138Z,40.13
2019-04-01T05:48:03.851Z,41.47
2019-04-01T05:53:07.475Z,41.83
2019-04-01T05:58:11.207Z,42.17
2019-04-01T06:03:14.905Z,48.00
2019-04-01T06:08:18.624Z,48.50
2019-04-01T06:13:22.312Z,48.93
2019-04-01T06:18:26.133Z,44.60
2019-04-01T06:23:29.878Z,46.00
2019-04-01T06:28:33.592Z,42.97
2019-04-01T06:33:37.303Z,42.97
2019-04-01T06:38:40.897Z,43.67
2019-04-01T06:43:44.548Z,42.57
2019-04-01T06:48:48.200Z,41.97
2019-04-01T06:53:51.948Z,40.57
2019-04-01T06:58:55.680Z,40.43
2019-04-01T07:03:59.327Z,41.02
2019-04-01T07:09:04.712Z,39.83
2019-04-01T07:14:08.761Z,39.83
2019-04-01T07:19:12.720Z,39.30
2019-04-01T07:24:17.264Z,39.37
2019-04-01T07:29:20.937Z,39.57
2019-04-01T07:34:24.974Z,39.83
2019-04-01T07:39:29.246Z,39.87
2019-04-01T07:44:33.081Z,40.13
2019-04-01T07:49:36.929Z,40.20
2019-04-01T07:54:40.984Z,40.70
2019-04-01T07:59:44.663Z,40.60
2019-04-01T08:04:48.361Z,41.00
2019-04-01T08:09:52.577Z,41.40
2019-04-01T08:14:56.219Z,40.43
2019-04-01T08:20:00.410Z,41.00
2019-04-01T08:25:06.086Z,42.07
2019-04-01T08:30:10.944Z,42.03
2019-04-01T08:35:14.741Z,42.30
2019-04-01T08:40:19.087Z,43.28
2019-04-01T08:45:22.771Z,41.83
2019-04-01T08:50:26.507Z,42.60
2019-04-01T08:55:30.188Z,42.63
2019-04-01T09:00:34.713Z,42.43
2019-04-01T09:05:38.733Z,42.27
2019-04-01T09:10:43.284Z,42.23
2019-04-01T09:15:47.021Z,42.40
2019-04-01T09:20:50.656Z,42.05
2019-04-01T09:25:54.302Z,41.70
2019-04-01T09:30:58.017Z,42.57
2019-04-01T09:36:04.408Z,42.60
2019-04-01T09:41:07.987Z,43.13
2019-04-01T09:46:11.654Z,44.30
2019-04-01T09:51:15.292Z,42.63
2019-04-01T09:56:18.876Z,43.20
2019-04-01T10:01:22.504Z,43.07
2019-04-01T10:06:26.093Z,43.27
2019-04-01T10:11:29.670Z,43.67
2019-04-01T10:16:33.276Z,43.10
2019-04-01T10:21:36.884Z,43.40
2019-04-01T10:26:40.534Z,43.70
2019-04-01T10:31:44.144Z,44.00
2019-04-01T10:36:47.775Z,43.57
2019-04-01T10:41:51.461Z,43.93
2019-04-01T10:46:55.185Z,43.63
2019-04-01T10:51:58.953Z,43.75
2019-04-01T10:57:02.553Z,43.73
2019-04-01T11:02:06.305Z,43.37
2019-04-01T11:07:09.955Z,44.07
2019-04-01T11:12:13.663Z,43.93
2019-04-01T11:17:17.312Z,43.93
2019-04-01T11:22:20.903Z,43.23
2019-04-01T11:27:24.508Z,44.00
2019-04-01T11:32:28.204Z,43.73
2019-04-01T11:37:31.864Z,44.00
2019-04-01T11:42:35.506Z,43.67
2019-04-01T11:47:39.161Z,43.20
2019-04-01T11:52:42.731Z,43.97
2019-04-01T11:57:46.396Z,43.00
2019-04-01T12:02:50.031Z,43.10
2019-04-01T12:07:53.779Z,42.57
2019-04-01T12:12:57.345Z,43.67
2019-04-01T12:18:00.991Z,43.00
2019-04-01T12:23:04.616Z,43.27
2019-04-01T12:28:08.267Z,42.70
2019-04-01T12:33:11.975Z,43.17
2019-04-01T12:38:15.719Z,43.30
2019-04-01T12:43:23.389Z,43.50
2019-04-01T12:48:25.710Z,43.73
2019-04-01T12:53:29.248Z,43.33
2019-04-01T12:58:32.960Z,44.33
2019-04-01T13:03:36.945Z,43.27
2019-04-01T13:08:41.835Z,43.53
2019-04-01T13:13:48.666Z,43.60
2019-04-01T13:18:50.650Z,43.57
2019-04-01T13:23:54.240Z,43.60
2019-04-01T13:28:57.815Z,43.63
2019-04-01T13:34:01.488Z,43.53
2019-04-01T13:39:05.888Z,43.60
2019-04-01T13:44:09.529Z,43.30
2019-04-01T13:49:13.116Z,43.63
2019-04-01T13:54:16.772Z,43.03
2019-04-01T13:59:20.360Z,42.57
2019-04-01T14:04:23.965Z,42.97
2019-04-01T14:09:30.720Z,42.83
2019-04-01T14:14:32.824Z,42.50
2019-04-01T14:19:36.396Z,42.83
2019-04-01T14:24:42.521Z,42.33
2019-04-01T14:29:45.201Z,42.23
2019-04-01T14:34:50.452Z,42.10
2019-04-01T14:39:54.152Z,42.90
2019-04-01T14:45:00.176Z,42.17
2019-04-01T14:50:07.488Z,42.43
2019-04-01T14:55:09.534Z,42.20
2019-04-01T15:00:15.632Z,42.05
2019-04-01T15:05:20.742Z,41.13
2019-04-01T15:10:24.752Z,41.70
2019-04-01T15:15:28.393Z,42.07
2019-04-01T15:20:32.484Z,41.75
2019-04-01T15:25:36.126Z,41.63
2019-04-01T15:30:39.803Z,41.37
2019-04-01T15:35:43.363Z,42.00
2019-04-01T15:40:47.255Z,41.67
2019-04-01T15:45:51.074Z,41.70
2019-04-01T15:50:54.779Z,41.30
2019-04-01T15:55:58.410Z,41.00
2019-04-01T16:01:02.247Z,41.63
2019-04-01T16:06:07.551Z,42.53
2019-04-01T16:11:11.284Z,42.70
2019-04-01T16:16:14.912Z,40.60
2019-04-01T16:21:18.453Z,41.77
2019-04-01T16:26:22.184Z,42.23
2019-04-01T16:31:26.369Z,41.83
2019-04-01T16:36:30.141Z,43.90
2019-04-01T16:41:33.750Z,41.70
2019-04-01T16:46:37.461Z,40.53
2019-04-01T16:51:41.408Z,40.53
2019-04-01T16:56:45.104Z,44.83
2019-04-01T17:01:48.848Z,42.17
2019-04-01T17:06:54.329Z,40.97
2019-04-01T17:11:59.069Z,40.70
2019-04-01T17:17:02.694Z,41.20
2019-04-01T17:22:11.254Z,41.93
2019-04-01T17:27:12.999Z,43.30
2019-04-01T17:32:16.646Z,42.87
2019-04-01T17:37:20.290Z,41.63
2019-04-01T17:42:23.943Z,40.00
2019-04-01T17:47:27.705Z,40.00
2019-04-01T17:52:31.351Z,41.23
2019-04-01T17:57:35.024Z,41.77
2019-04-01T18:02:38.763Z,42.83
2019-04-01T18:07:42.376Z,39.70
2019-04-01T18:12:45.931Z,39.77
2019-04-01T18:17:49.516Z,45.80
2019-04-01T18:22:53.241Z,41.57
2019-04-01T18:27:56.905Z,42.57
2019-04-01T18:33:00.534Z,39.57
2019-04-01T18:38:04.251Z,41.30
2019-04-01T18:43:07.833Z,40.40
2019-04-01T18:48:14.458Z,41.07
2019-04-01T18:53:16.774Z,39.60
2019-04-01T18:58:20.444Z,40.37
2019-04-01T19:03:24.313Z,44.00
2019-04-01T19:08:27.987Z,42.27
2019-04-01T19:13:31.582Z,41.00
2019-04-01T19:18:35.253Z,39.63
2019-04-01T19:23:38.964Z,39.17
2019-04-01T19:28:42.608Z,40.53
2019-04-01T19:33:46.195Z,40.70
2019-04-01T19:38:49.774Z,40.70
2019-04-01T19:43:53.373Z,40.30
2019-04-01T19:48:56.959Z,39.27
2019-04-01T19:54:00.643Z,39.30
2019-04-01T19:59:04.380Z,40.57
2019-04-01T20:04:08.031Z,41.67
2019-04-01T20:09:11.768Z,39.43
2019-04-01T20:14:15.315Z,41.17
2019-04-01T20:19:18.925Z,39.63
2019-04-01T20:24:22.750Z,45.03
2019-04-01T20:29:26.319Z,40.87
2019-04-01T20:34:32.188Z,39.83
2019-04-01T20:39:35.307Z,39.93
2019-04-01T20:44:38.914Z,39.45
2019-04-01T20:49:42.524Z,41.30
2019-04-01T20:54:47.284Z,40.07
2019-04-01T20:59:50.867Z,41.47
2019-04-01T21:04:55.143Z,40.33
2019-04-01T21:09:59.549Z,40.27
2019-04-01T21:15:04.052Z,39.33
2019-04-01T21:20:09.531Z,40.30
2019-04-01T21:25:13.272Z,39.93
2019-04-01T21:30:17.407Z,41.00
2019-04-01T21:35:21.158Z,38.97
2019-04-01T21:40:24.785Z,38.35
2019-04-01T21:45:28.508Z,38.10
2019-04-01T21:50:32.369Z,39.55
2019-04-01T21:55:35.933Z,38.08
2019-04-01T22:00:44.469Z,38.13
2019-04-01T22:05:48.283Z,37.67
2019-04-01T22:10:52.821Z,37.93
2019-04-01T22:15:56.381Z,37.77
2019-04-01T22:21:00.832Z,37.03
2019-04-01T22:26:04.549Z,37.07
2019-04-01T22:31:08.211Z,36.87
2019-04-01T22:36:11.890Z,36.47
2019-04-01T22:41:15.504Z,37.57
2019-04-01T22:46:19.110Z,36.63
2019-04-01T22:51:22.669Z,36.83
2019-04-01T22:56:27.132Z,37.53
2019-04-01T23:01:30.841Z,36.98
2019-04-01T23:06:35.345Z,37.23
2019-04-01T23:11:39.100Z,36.90
2019-04-01T23:16:42.761Z,37.87
2019-04-01T23:21:46.319Z,37.67
2019-04-01T23:26:49.961Z,36.87
2019-04-01T23:31:53.556Z,37.93
2019-04-01T23:36:57.151Z,38.27
2019-04-01T23:42:00.711Z,38.30
2019-04-01T23:47:04.371Z,38.23
2019-04-01T23:52:07.935Z,38.65
2019-04-01T23:57:11.536Z,39.10
